Terminal Aerodrome Forecast
Issued by NWS

Home | Current Version | Previous Version | Graphics & Text | Print | Product List | Glossary On
Versions: 1 2 3 4 5 6 7 8 9 10 11 12 13 14 15
000
FTUS43 KBIS 131100
TAFDIK
TAF
KDIK 131139Z 1312/1412 35015G22KT P6SM OVC017
     FM131500 33016G24KT P6SM SCT017 BKN035
     FM140200 33012KT P6SM SCT035
     FM140800 32008KT P6SM BKN020
      AMD NOT SKED=

USA.gov is the U.S. government's official web portal to all federal, state and local government web resources and services.